createdAt,value
2017-07-31T00:02:03.077Z,56.1
2017-07-31T00:07:03.879Z,56.1
2017-07-31T00:12:03.771Z,56.3
2017-07-31T00:17:03.528Z,56.3
2017-07-31T00:22:03.408Z,56.3
2017-07-31T00:27:03.188Z,56.4
2017-07-31T00:32:03.808Z,56.4
2017-07-31T00:37:03.472Z,56.3
2017-07-31T00:42:03.201Z,56.3
2017-07-31T00:47:03.894Z,56.4
2017-07-31T00:52:03.569Z,56.5
2017-07-31T00:57:03.448Z,56.4
2017-07-31T01:02:03.304Z,56.3
2017-07-31T01:07:03.271Z,56.6
2017-07-31T01:12:03.201Z,56.5
2017-07-31T01:17:03.892Z,56.5
2017-07-31T01:22:03.598Z,56.7
2017-07-31T01:27:03.536Z,56.8
2017-07-31T01:32:03.305Z,56.8
2017-07-31T01:37:03.634Z,56.8
2017-07-31T01:42:03.499Z,56.8
2017-07-31T01:47:03.597Z,56.8
2017-07-31T01:52:03.542Z,56.6
2017-07-31T01:57:03.547Z,56.6
2017-07-31T02:02:03.671Z,56.6
2017-07-31T02:07:03.218Z,56.5
2017-07-31T02:12:03.445Z,56.5
2017-07-31T02:17:03.619Z,56.6
2017-07-31T02:22:03.470Z,56.5
2017-07-31T02:27:03.567Z,56.4
2017-07-31T02:32:03.868Z,56.6
2017-07-31T02:37:03.156Z,56.6
2017-07-31T02:42:03.498Z,56.8
2017-07-31T02:47:04.127Z,56.8
2017-07-31T02:52:03.206Z,56.8
2017-07-31T02:57:03.495Z,56.8
2017-07-31T03:02:04.076Z,56.9
2017-07-31T03:07:03.230Z,56.8
2017-07-31T03:12:03.777Z,56.7
2017-07-31T03:17:09.627Z,56.9
2017-07-31T03:22:03.622Z,56.8
2017-07-31T03:27:03.199Z,56.9
2017-07-31T03:32:28.271Z,57.0
2017-07-31T03:37:03.247Z,56.9
2017-07-31T03:42:03.636Z,56.9
2017-07-31T03:47:33.421Z,56.8
2017-07-31T03:52:03.168Z,56.8
2017-07-31T03:57:03.770Z,56.7
2017-07-31T04:02:25.918Z,57.0
2017-07-31T04:07:03.179Z,57.0
2017-07-31T04:12:03.774Z,57.0
2017-07-31T04:17:25.078Z,56.7
2017-07-31T04:22:03.794Z,56.7
2017-07-31T04:27:03.193Z,56.7
2017-07-31T04:32:23.897Z,56.6
2017-07-31T04:37:03.946Z,56.5
2017-07-31T04:42:03.334Z,56.4
2017-07-31T04:47:21.964Z,56.2
2017-07-31T04:52:03.478Z,56.2
2017-07-31T04:57:03.786Z,55.6
2017-07-31T05:02:20.965Z,55.5
2017-07-31T05:07:03.706Z,55.3
2017-07-31T05:12:03.291Z,55.6
2017-07-31T05:17:24.115Z,55.5
2017-07-31T05:22:03.279Z,55.4
2017-07-31T05:27:03.776Z,55.2
2017-07-31T05:32:23.095Z,55.2
2017-07-31T05:37:03.738Z,55.1
2017-07-31T05:42:03.171Z,55.1
2017-07-31T05:47:28.686Z,55.6
2017-07-31T05:52:03.688Z,55.8
2017-07-31T05:57:03.168Z,56.1
2017-07-31T06:02:21.992Z,56.2
2017-07-31T06:07:03.312Z,56.1
2017-07-31T06:12:03.873Z,55.9
2017-07-31T06:22:03.544Z,55.9
2017-07-31T06:27:03.884Z,55.6
2017-07-31T06:32:24.729Z,55.6
2017-07-31T06:37:03.448Z,55.6
2017-07-31T06:42:03.808Z,54.9
2017-07-31T06:47:28.228Z,55.0
2017-07-31T06:52:03.948Z,54.8
2017-07-31T06:57:03.458Z,55.0
2017-07-31T07:02:24.287Z,54.8
2017-07-31T07:07:03.971Z,55.0
2017-07-31T07:12:03.541Z,55.0
2017-07-31T07:22:03.713Z,55.5
2017-07-31T07:27:03.171Z,55.5
2017-07-31T07:32:25.769Z,54.9
2017-07-31T07:37:03.053Z,54.9
2017-07-31T07:42:03.525Z,55.2
2017-07-31T07:47:28.789Z,55.5
2017-07-31T07:52:03.407Z,54.9
2017-07-31T07:57:03.838Z,54.8
2017-07-31T08:07:03.864Z,55.0
2017-07-31T08:12:03.501Z,55.3
2017-07-31T08:17:32.751Z,56.2
2017-07-31T08:22:03.129Z,56.3
2017-07-31T08:27:03.625Z,56.5
2017-07-31T08:32:25.064Z,56.5
2017-07-31T08:37:03.874Z,57.0
2017-07-31T08:42:03.375Z,56.7
2017-07-31T08:47:28.611Z,56.7
2017-07-31T08:52:03.625Z,56.1
2017-07-31T08:57:03.048Z,56.5
2017-07-31T09:07:07.425Z,56.5
2017-07-31T09:12:03.647Z,56.4
2017-07-31T09:17:34.092Z,56.1
2017-07-31T09:22:03.192Z,56.1
2017-07-31T09:27:03.747Z,55.6
2017-07-31T09:32:21.407Z,55.6
2017-07-31T09:37:03.529Z,55.6
2017-07-31T09:42:03.829Z,55.7
2017-07-31T09:47:23.721Z,56.4
2017-07-31T09:52:03.408Z,56.3
2017-07-31T09:57:03.737Z,56.6
2017-07-31T10:02:21.826Z,56.3
2017-07-31T10:07:03.742Z,56.0
2017-07-31T10:12:03.295Z,56.0
2017-07-31T10:17:28.727Z,56.5
2017-07-31T10:22:03.588Z,56.9
2017-07-31T10:27:03.975Z,56.9
2017-07-31T10:32:23.542Z,57.4
2017-07-31T10:37:03.216Z,57.3
2017-07-31T10:42:03.655Z,57.0
2017-07-31T10:47:28.044Z,56.7
2017-07-31T10:52:03.306Z,56.1
2017-07-31T10:57:03.666Z,56.1
2017-07-31T11:02:25.997Z,55.9
2017-07-31T11:07:03.515Z,56.0
2017-07-31T11:12:03.946Z,56.1
2017-07-31T11:17:23.368Z,56.2
2017-07-31T11:22:03.391Z,56.2
2017-07-31T11:27:03.731Z,56.7
2017-07-31T11:32:23.370Z,56.4
2017-07-31T11:37:03.564Z,56.0
2017-07-31T11:42:03.943Z,56.5
2017-07-31T11:47:33.047Z,56.3
2017-07-31T11:52:03.602Z,56.3
2017-07-31T11:57:03.866Z,55.8
2017-07-31T12:02:25.106Z,55.7
2017-07-31T12:07:03.365Z,54.8
2017-07-31T12:12:03.851Z,54.9
2017-07-31T12:17:25.721Z,54.7
2017-07-31T12:22:03.229Z,55.1
2017-07-31T12:27:03.703Z,55.3
2017-07-31T12:32:27.617Z,55.6
2017-07-31T12:37:03.395Z,54.8
2017-07-31T12:42:03.777Z,54.8
2017-07-31T12:47:25.208Z,54.6
2017-07-31T12:52:03.456Z,54.6
2017-07-31T12:57:03.812Z,54.5
2017-07-31T13:02:32.914Z,55.0
2017-07-31T13:07:03.328Z,55.8
2017-07-31T13:12:03.857Z,55.7
2017-07-31T13:17:26.730Z,54.8
2017-07-31T13:22:03.189Z,55.0
2017-07-31T13:27:03.626Z,55.0
2017-07-31T13:32:24.486Z,56.0
2017-07-31T13:37:03.126Z,56.9
2017-07-31T13:42:03.554Z,56.9
2017-07-31T13:47:23.347Z,56.8
2017-07-31T13:52:03.718Z,56.9
2017-07-31T13:57:03.156Z,56.9
2017-07-31T14:02:23.825Z,56.2
2017-07-31T14:07:03.989Z,56.2
2017-07-31T14:12:03.423Z,57.1
2017-07-31T14:17:28.241Z,56.8
2017-07-31T14:22:03.518Z,56.7
2017-07-31T14:27:03.852Z,56.4
2017-07-31T14:37:03.347Z,57.4
2017-07-31T14:42:03.749Z,58.4
2017-07-31T14:47:28.021Z,58.4
2017-07-31T14:52:03.764Z,58.8
2017-07-31T14:57:03.168Z,58.5
2017-07-31T15:02:25.007Z,55.3
2017-07-31T15:07:03.946Z,55.2
2017-07-31T15:12:03.553Z,53.6
2017-07-31T15:17:27.327Z,52.8
2017-07-31T15:22:03.417Z,51.6
2017-07-31T15:27:03.825Z,51.6
2017-07-31T15:32:24.105Z,51.3
2017-07-31T15:37:03.845Z,51.9
2017-07-31T15:42:03.234Z,50.5
2017-07-31T15:47:24.956Z,47.9
2017-07-31T15:52:03.863Z,47.3
2017-07-31T15:57:03.232Z,48.6
2017-07-31T16:02:23.782Z,49.6
2017-07-31T16:07:03.397Z,50.7
2017-07-31T16:12:03.882Z,50.7
2017-07-31T16:17:22.552Z,51.5
2017-07-31T16:22:03.601Z,50.9
2017-07-31T16:27:03.878Z,50.9
2017-07-31T16:32:23.656Z,51.6
2017-07-31T16:37:03.116Z,53.6
2017-07-31T16:42:03.436Z,54.9
2017-07-31T16:47:22.985Z,51.6
2017-07-31T16:52:03.818Z,51.6
2017-07-31T16:57:03.165Z,47.4
2017-07-31T17:02:17.816Z,43.6
2017-07-31T17:07:03.670Z,43.1
2017-07-31T17:12:03.080Z,43.4
2017-07-31T17:17:16.480Z,45.3
2017-07-31T17:22:03.248Z,45.3
2017-07-31T17:27:03.689Z,45.1
2017-07-31T17:32:17.322Z,46.1
2017-07-31T17:37:03.188Z,46.2
2017-07-31T17:42:03.480Z,46.4
2017-07-31T17:47:17.313Z,48.0
2017-07-31T17:52:03.386Z,49.0
2017-07-31T17:57:03.675Z,49.0
2017-07-31T18:02:22.142Z,51.0
2017-07-31T18:07:03.435Z,55.7
2017-07-31T18:12:03.846Z,55.8
2017-07-31T18:17:23.989Z,57.3
2017-07-31T18:22:03.297Z,57.3
2017-07-31T18:27:03.654Z,57.6
2017-07-31T18:32:27.537Z,58.3
2017-07-31T18:37:03.837Z,58.2
2017-07-31T18:42:03.207Z,58.3
2017-07-31T18:47:24.992Z,58.8
2017-07-31T18:52:03.144Z,58.5
2017-07-31T18:57:03.623Z,58.9
2017-07-31T19:02:23.637Z,58.8
2017-07-31T19:07:03.858Z,58.7
2017-07-31T19:12:03.733Z,58.8
2017-07-31T19:17:28.922Z,58.3
2017-07-31T19:22:03.237Z,58.2
2017-07-31T19:27:03.662Z,58.2
2017-07-31T19:32:25.094Z,58.1
2017-07-31T19:37:03.340Z,58.2
2017-07-31T19:42:03.527Z,58.2
2017-07-31T19:47:13.898Z,57.9
2017-07-31T19:52:03.117Z,57.9
2017-07-31T19:57:03.398Z,58.0
2017-07-31T20:02:04.840Z,57.6
2017-07-31T20:07:03.274Z,57.8
2017-07-31T20:12:03.740Z,57.7
2017-07-31T20:17:03.338Z,57.7
2017-07-31T20:22:03.552Z,57.6
2017-07-31T20:27:03.820Z,57.7
2017-07-31T20:32:03.235Z,57.7
2017-07-31T20:37:03.560Z,57.8
2017-07-31T20:42:03.842Z,57.7
2017-07-31T20:47:03.291Z,57.4
2017-07-31T20:52:03.502Z,57.4
2017-07-31T20:57:03.823Z,57.5
2017-07-31T21:02:03.333Z,57.5
2017-07-31T21:07:03.688Z,57.6
2017-07-31T21:12:03.319Z,57.5
2017-07-31T21:17:03.681Z,57.4
2017-07-31T21:22:03.083Z,57.4
2017-07-31T21:27:03.478Z,57.4
2017-07-31T21:32:03.723Z,57.4
2017-07-31T21:37:03.126Z,57.4
2017-07-31T21:42:03.343Z,57.5
2017-07-31T21:47:03.670Z,57.3
2017-07-31T21:52:03.069Z,57.3
2017-07-31T21:57:03.305Z,57.3
2017-07-31T22:02:03.892Z,57.3
2017-07-31T22:07:03.969Z,57.4
2017-07-31T22:12:03.265Z,57.2
2017-07-31T22:22:04.182Z,56.7
2017-07-31T22:27:03.280Z,57.0
2017-07-31T22:32:03.815Z,57.2
2017-07-31T22:37:03.461Z,57.1
2017-07-31T22:42:03.924Z,57.1
2017-07-31T22:47:03.503Z,57.0
2017-07-31T22:52:03.035Z,57.1
2017-07-31T22:57:03.626Z,56.9
2017-07-31T23:02:03.145Z,56.8
2017-07-31T23:07:03.171Z,56.8
2017-07-31T23:12:03.156Z,56.7
2017-07-31T23:17:04.122Z,56.8
2017-07-31T23:22:03.835Z,56.7
2017-07-31T23:27:03.573Z,56.6
2017-07-31T23:32:03.394Z,56.6
2017-07-31T23:37:03.099Z,56.6
2017-07-31T23:42:03.831Z,56.5
2017-07-31T23:47:03.619Z,56.6
2017-07-31T23:52:03.353Z,56.5
2017-07-31T23:57:03.088Z,56.5
